Time;durP1;ratioP1;P1;durP2;ratioP2;P2;SDS_P1;SDS_P2;PMS_P1;PMS_P2;Temp;Humidity;BMP_temperature;BMP_pressure;BME280_temperature;BME280_humidity;BME280_pressure;Samples;Min_cycle;Max_cycle;Signal;HPM_P1;HPM_P2
2021/09/06 00:00:00;;;;;;;10.40;5.73;;;8.90;99.90;;;;;;4424712;32;20219;-69
2021/09/06 00:02:27;;;;;;;11.33;6.50;;;8.80;99.90;;;;;;4426191;32;20188;-69
2021/09/06 00:04:55;;;;;;;10.63;6.07;;;8.80;99.90;;;;;;4426330;32;20180;-70
2021/09/06 00:07:21;;;;;;;10.13;6.57;;;8.80;99.90;;;;;;4425118;32;20527;-69
2021/09/06 00:09:52;;;;;;;13.07;6.40;;;8.70;99.90;;;;;;4426220;32;20131;-71
2021/09/06 00:12:19;;;;;;;13.10;6.73;;;8.70;99.90;;;;;;4426401;32;20424;-71
2021/09/06 00:14:46;;;;;;;11.13;6.30;;;8.60;99.90;;;;;;4426096;32;20135;-71
2021/09/06 00:17:12;;;;;;;15.13;7.33;;;8.50;99.90;;;;;;4425984;32;20180;-71
2021/09/06 00:19:39;;;;;;;11.43;6.03;;;8.50;99.90;;;;;;4424353;32;20545;-71
2021/09/06 00:22:06;;;;;;;11.43;6.30;;;8.50;99.90;;;;;;4425918;32;20124;-71
2021/09/06 00:24:35;;;;;;;10.90;6.13;;;8.40;99.90;;;;;;4425807;32;20479;-71
2021/09/06 00:27:02;;;;;;;10.43;6.00;;;8.40;99.90;;;;;;4424141;32;20187;-71
2021/09/06 00:29:29;;;;;;;12.23;6.57;;;8.30;99.90;;;;;;4424382;32;20164;-71
2021/09/06 00:31:55;;;;;;;12.10;6.40;;;8.30;99.90;;;;;;4425946;32;20418;-70
2021/09/06 00:34:22;;;;;;;10.77;6.43;;;8.30;99.90;;;;;;4425887;32;20143;-71
2021/09/06 00:36:49;;;;;;;13.00;6.33;;;8.20;99.90;;;;;;4425127;32;20181;-71
2021/09/06 00:39:17;;;;;;;9.30;5.60;;;8.20;99.90;;;;;;4425528;32;20218;-71
2021/09/06 00:41:44;;;;;;;10.60;6.00;;;8.20;99.90;;;;;;4424508;32;20131;-71
2021/09/06 00:44:11;;;;;;;13.73;6.53;;;8.10;99.90;;;;;;4423367;32;20183;-71
2021/09/06 00:46:43;;;;;;;10.93;6.20;;;8.10;99.90;;;;;;4423644;32;20162;-71
2021/09/06 00:49:10;;;;;;;10.83;5.90;;;8.00;99.90;;;;;;4423841;32;20132;-71
2021/09/06 00:51:37;;;;;;;10.67;6.40;;;8.00;99.90;;;;;;4425526;32;20157;-71
2021/09/06 00:54:04;;;;;;;11.10;6.27;;;8.00;99.90;;;;;;4425487;32;20127;-71
2021/09/06 00:56:31;;;;;;;10.67;5.80;;;7.90;99.90;;;;;;4425468;32;20204;-71
2021/09/06 00:58:58;;;;;;;10.77;5.83;;;7.90;99.90;;;;;;4423740;32;20140;-71
2021/09/06 01:01:25;;;;;;;10.67;6.03;;;7.90;99.90;;;;;;4423796;32;20457;-71
2021/09/06 01:03:52;;;;;;;12.43;6.30;;;7.90;99.90;;;;;;4424395;32;20165;-70
2021/09/06 01:06:19;;;;;;;12.03;6.17;;;7.90;99.90;;;;;;4425208;32;20414;-71
2021/09/06 01:08:46;;;;;;;13.03;6.50;;;7.90;99.90;;;;;;4424162;32;20336;-71
2021/09/06 01:11:13;;;;;;;9.97;6.00;;;7.80;99.90;;;;;;4425408;32;20158;-71
2021/09/06 01:13:40;;;;;;;10.13;6.33;;;7.80;99.90;;;;;;4423572;32;20166;-71
2021/09/06 01:16:06;;;;;;;10.77;6.40;;;7.80;99.90;;;;;;4423821;32;20127;-71
2021/09/06 01:18:34;;;;;;;12.77;6.70;;;7.80;99.90;;;;;;4423524;32;20150;-70
2021/09/06 01:21:01;;;;;;;12.07;7.13;;;7.70;99.90;;;;;;4423571;32;20139;-71
2021/09/06 01:23:28;;;;;;;13.37;7.37;;;7.70;99.90;;;;;;4422373;32;20138;-70
2021/09/06 01:25:54;;;;;;;13.60;7.27;;;7.70;99.90;;;;;;4423684;32;20180;-70
2021/09/06 01:28:22;;;;;;;11.97;7.07;;;7.70;99.90;;;;;;4423316;32;20150;-71
2021/09/06 01:30:49;;;;;;;11.43;7.13;;;7.70;99.90;;;;;;4423520;32;20135;-70
2021/09/06 01:33:15;;;;;;;14.03;7.20;;;7.70;99.90;;;;;;4425102;32;20483;-70
2021/09/06 01:35:42;;;;;;;14.23;7.47;;;7.60;99.90;;;;;;4423329;32;20184;-70
2021/09/06 01:38:09;;;;;;;14.23;8.07;;;7.60;99.90;;;;;;4425174;32;20376;-70
2021/09/06 01:40:36;;;;;;;14.93;7.53;;;7.60;99.90;;;;;;4423158;32;20151;-70
2021/09/06 01:43:03;;;;;;;16.87;7.97;;;7.60;99.90;;;;;;4425112;32;20123;-70
2021/09/06 01:45:30;;;;;;;13.13;7.60;;;7.60;99.90;;;;;;4424082;32;20381;-69
2021/09/06 01:47:57;;;;;;;17.17;8.27;;;7.60;99.90;;;;;;4423967;32;20140;-71
2021/09/06 01:50:24;;;;;;;15.53;8.20;;;7.50;99.90;;;;;;4423317;32;20457;-70
2021/09/06 01:52:51;;;;;;;16.57;8.73;;;7.50;99.90;;;;;;4425121;32;20379;-70
2021/09/06 01:55:18;;;;;;;15.77;9.30;;;7.60;99.90;;;;;;4424747;32;20181;-70
2021/09/06 01:57:45;;;;;;;14.97;8.63;;;7.50;99.90;;;;;;4423062;32;20146;-70
2021/09/06 02:00:12;;;;;;;17.10;9.20;;;7.50;99.90;;;;;;4423300;32;20154;-70
2021/09/06 02:02:39;;;;;;;16.27;9.33;;;7.50;99.90;;;;;;4424890;32;20513;-70
2021/09/06 02:05:06;;;;;;;18.67;9.87;;;7.50;99.90;;;;;;4424575;32;20174;-70
2021/09/06 02:07:34;;;;;;;16.40;9.07;;;7.40;99.90;;;;;;4425265;32;20128;-70
2021/09/06 02:10:01;;;;;;;17.43;9.47;;;7.40;99.90;;;;;;4424825;32;20167;-70
2021/09/06 02:12:28;;;;;;;16.50;10.03;;;7.40;99.90;;;;;;4423971;32;20122;-71
2021/09/06 02:14:54;;;;;;;17.60;10.30;;;7.40;99.90;;;;;;4423199;32;20414;-70
2021/09/06 02:17:21;;;;;;;18.47;11.17;;;7.40;99.90;;;;;;4424834;32;20194;-70
2021/09/06 02:19:48;;;;;;;19.77;12.40;;;7.40;99.90;;;;;;4423136;32;20139;-70
2021/09/06 02:22:15;;;;;;;22.07;13.33;;;7.30;99.90;;;;;;4424906;32;20138;-70
2021/09/06 02:24:42;;;;;;;26.37;16.17;;;7.30;99.90;;;;;;4424934;32;20127;-70
2021/09/06 02:27:09;;;;;;;28.70;18.90;;;7.30;99.90;;;;;;4423367;32;20428;-71
2021/09/06 02:29:35;;;;;;;27.83;19.30;;;7.20;99.90;;;;;;4422986;32;20510;-71
2021/09/06 02:32:02;;;;;;;29.50;18.97;;;7.20;99.90;;;;;;4425019;32;20131;-71
2021/09/06 02:34:29;;;;;;;29.03;18.80;;;7.20;99.90;;;;;;4426039;32;20131;-70
2021/09/06 02:36:56;;;;;;;30.63;18.53;;;7.20;99.90;;;;;;4427376;32;20443;-71
2021/09/06 02:39:23;;;;;;;29.10;17.60;;;7.10;99.90;;;;;;4426504;32;20152;-71
2021/09/06 02:41:49;;;;;;;26.07;17.03;;;7.10;99.90;;;;;;4426642;32;20123;-71
2021/09/06 02:44:16;;;;;;;27.43;16.50;;;7.10;99.90;;;;;;4426473;32;20123;-70
2021/09/06 02:46:43;;;;;;;28.00;17.50;;;7.10;99.90;;;;;;4425595;32;20462;-71
2021/09/06 02:49:10;;;;;;;26.70;16.97;;;7.00;99.90;;;;;;4426824;32;20127;-70
2021/09/06 02:51:37;;;;;;;26.30;17.03;;;7.00;99.90;;;;;;4427033;32;20132;-71
2021/09/06 02:54:03;;;;;;;24.63;16.47;;;7.00;99.90;;;;;;4427395;32;20186;-71
2021/09/06 02:56:30;;;;;;;23.90;16.30;;;7.00;99.90;;;;;;4427095;32;20138;-71
2021/09/06 02:58:57;;;;;;;25.93;15.90;;;7.00;99.90;;;;;;4426919;32;20130;-70
2021/09/06 03:01:23;;;;;;;28.13;15.60;;;7.00;99.90;;;;;;4426708;32;20123;-71
2021/09/06 03:03:50;;;;;;;26.60;16.53;;;6.90;99.90;;;;;;4427250;32;20150;-71
2021/09/06 03:06:17;;;;;;;24.13;16.00;;;6.90;99.90;;;;;;4425118;32;20135;-71
2021/09/06 03:08:44;;;;;;;23.30;15.30;;;6.90;99.90;;;;;;4427058;32;20131;-71
2021/09/06 03:11:11;;;;;;;23.27;15.40;;;6.90;99.90;;;;;;4425230;32;20122;-71
2021/09/06 03:13:37;;;;;;;22.77;14.27;;;6.90;99.90;;;;;;4425212;32;20123;-71
2021/09/06 03:16:05;;;;;;;22.93;14.00;;;6.90;99.90;;;;;;4426961;32;20356;-71
2021/09/06 03:18:32;;;;;;;25.30;15.03;;;6.90;99.90;;;;;;4426897;32;20173;-71
2021/09/06 03:20:59;;;;;;;21.77;13.87;;;6.80;99.90;;;;;;4427021;32;20135;-71
2021/09/06 03:23:25;;;;;;;21.73;14.13;;;6.80;99.90;;;;;;4427158;32;20202;-71
2021/09/06 03:25:52;;;;;;;20.20;13.80;;;6.80;99.90;;;;;;4426734;32;20557;-71
2021/09/06 03:28:19;;;;;;;20.83;13.20;;;6.80;99.90;;;;;;4424846;32;20201;-71
2021/09/06 03:30:45;;;;;;;22.17;12.80;;;6.80;99.90;;;;;;4426626;32;20164;-71
2021/09/06 03:33:13;;;;;;;23.10;13.13;;;6.80;99.90;;;;;;4426792;32;20128;-71
2021/09/06 03:35:42;;;;;;;21.20;12.07;;;6.70;99.90;;;;;;4426546;32;20155;-71
2021/09/06 03:38:10;;;;;;;20.30;12.33;;;6.70;99.90;;;;;;4425048;32;20180;-71
2021/09/06 03:40:38;;;;;;;21.40;12.03;;;6.70;99.90;;;;;;4426644;32;20394;-71
2021/09/06 03:43:05;;;;;;;20.83;12.10;;;6.70;99.90;;;;;;4424778;32;20457;-71
2021/09/06 03:45:32;;;;;;;18.47;11.97;;;6.70;99.90;;;;;;4424479;32;20175;-70
2021/09/06 03:47:59;;;;;;;19.60;11.80;;;6.70;99.90;;;;;;4424602;32;20144;-71
2021/09/06 03:50:25;;;;;;;18.17;11.27;;;6.60;99.90;;;;;;4424802;32;20199;-71
2021/09/06 03:52:52;;;;;;;20.67;11.87;;;6.60;99.90;;;;;;4425609;32;20402;-71
2021/09/06 03:55:19;;;;;;;16.43;10.73;;;6.60;99.90;;;;;;4426194;32;20389;-71
2021/09/06 03:57:46;;;;;;;21.40;11.10;;;6.60;99.90;;;;;;4425026;32;20425;-71
2021/09/06 04:00:13;;;;;;;20.37;11.90;;;6.60;99.90;;;;;;4425756;32;20513;-70
2021/09/06 04:02:39;;;;;;;19.23;11.13;;;6.60;99.90;;;;;;4424814;32;20197;-71
2021/09/06 04:05:07;;;;;;;17.90;10.80;;;6.60;99.90;;;;;;4425778;32;20120;-71
2021/09/06 04:07:35;;;;;;;16.20;10.57;;;6.60;99.90;;;;;;4426036;32;20143;-71
2021/09/06 04:10:02;;;;;;;18.77;10.70;;;6.70;99.90;;;;;;4425221;32;20207;-71
2021/09/06 04:12:29;;;;;;;16.50;10.60;;;6.70;99.90;;;;;;4425645;32;20173;-70
2021/09/06 04:14:56;;;;;;;20.07;10.97;;;6.70;99.90;;;;;;4424455;32;20462;-71
2021/09/06 04:17:22;;;;;;;16.10;9.73;;;6.70;99.90;;;;;;4425805;32;20135;-70
2021/09/06 04:19:49;;;;;;;14.87;9.80;;;6.70;99.90;;;;;;4424147;32;20469;-70
2021/09/06 04:22:16;;;;;;;16.00;10.20;;;6.70;99.90;;;;;;4426090;32;20139;-70
2021/09/06 04:24:45;;;;;;;16.77;10.30;;;6.70;99.90;;;;;;4425939;32;20172;-71
2021/09/06 04:27:12;;;;;;;17.47;9.97;;;6.70;99.90;;;;;;4425610;32;20198;-71
2021/09/06 04:29:39;;;;;;;16.57;10.30;;;6.70;99.90;;;;;;4424176;32;20127;-70
2021/09/06 04:32:06;;;;;;;16.83;10.20;;;6.70;99.90;;;;;;4425807;32;20135;-71
2021/09/06 04:34:33;;;;;;;15.90;9.63;;;6.70;99.90;;;;;;4424325;32;20457;-71
2021/09/06 04:37:02;;;;;;;15.33;9.07;;;6.80;99.90;;;;;;4423391;32;20134;-70
2021/09/06 04:39:28;;;;;;;15.40;9.53;;;6.80;99.90;;;;;;4424947;32;20130;-72
2021/09/06 04:41:55;;;;;;;15.70;9.83;;;6.80;99.90;;;;;;4425472;32;20518;-73
2021/09/06 04:44:22;;;;;;;16.17;9.27;;;6.80;99.90;;;;;;4425165;32;20167;-71
2021/09/06 04:46:49;;;;;;;15.17;8.70;;;6.80;99.90;;;;;;4425405;32;20151;-71
2021/09/06 04:49:15;;;;;;;14.67;9.20;;;6.90;99.90;;;;;;4423035;32;20194;-71
2021/09/06 04:51:42;;;;;;;13.43;8.67;;;6.90;99.90;;;;;;4424570;32;20169;-71
2021/09/06 04:54:09;;;;;;;13.13;8.77;;;6.90;99.90;;;;;;4424312;32;20189;-70
2021/09/06 04:56:36;;;;;;;14.80;8.60;;;6.90;99.90;;;;;;4424916;32;20119;-71
2021/09/06 04:59:03;;;;;;;15.50;8.90;;;6.90;99.90;;;;;;4425211;32;20123;-70
2021/09/06 05:01:30;;;;;;;16.10;8.90;;;7.00;99.90;;;;;;4425564;32;20284;-70
2021/09/06 05:03:57;;;;;;;14.37;8.40;;;7.00;99.90;;;;;;4423557;32;20142;-70
2021/09/06 05:06:24;;;;;;;14.67;8.53;;;7.10;99.90;;;;;;4423713;32;20131;-71
2021/09/06 05:08:51;;;;;;;15.47;8.13;;;7.10;99.90;;;;;;4424373;32;20189;-72
2021/09/06 05:11:17;;;;;;;15.83;8.60;;;7.20;99.90;;;;;;4425116;32;20139;-70
2021/09/06 05:13:44;;;;;;;13.43;7.77;;;7.20;99.90;;;;;;4425246;32;20123;-70
2021/09/06 05:16:11;;;;;;;14.53;8.33;;;7.30;99.90;;;;;;4425295;32;20188;-71
2021/09/06 05:18:38;;;;;;;14.70;9.07;;;7.30;99.90;;;;;;4423376;32;20215;-72
2021/09/06 05:21:04;;;;;;;15.80;9.13;;;7.40;99.90;;;;;;4425125;32;20131;-73
2021/09/06 05:23:31;;;;;;;16.60;9.13;;;7.40;99.90;;;;;;4425147;32;20172;-72
2021/09/06 05:25:58;;;;;;;13.90;8.23;;;7.50;99.90;;;;;;4422764;32;20177;-71
2021/09/06 05:28:25;;;;;;;14.30;8.73;;;7.60;99.90;;;;;;4423006;32;20151;-70
2021/09/06 05:30:51;;;;;;;17.20;9.33;;;7.60;99.90;;;;;;4423591;32;20465;-71
2021/09/06 05:33:18;;;;;;;16.50;8.97;;;7.70;99.90;;;;;;4423250;32;20132;-72
2021/09/06 05:35:45;;;;;;;15.27;8.93;;;7.70;99.90;;;;;;4424647;32;20324;-72
2021/09/06 05:38:12;;;;;;;17.17;9.73;;;7.80;99.90;;;;;;4424017;32;20170;-72
2021/09/06 05:40:39;;;;;;;15.37;9.70;;;7.90;99.90;;;;;;4425075;32;20127;-72
2021/09/06 05:43:06;;;;;;;17.07;9.80;;;7.90;99.90;;;;;;4423241;32;20131;-72
2021/09/06 05:45:32;;;;;;;17.53;10.60;;;8.00;99.90;;;;;;4423209;32;20166;-72
2021/09/06 05:47:59;;;;;;;17.60;9.67;;;8.10;99.90;;;;;;4423293;32;20476;-72
2021/09/06 05:50:26;;;;;;;18.27;9.90;;;8.20;99.90;;;;;;4424365;32;20235;-71
2021/09/06 05:52:53;;;;;;;17.20;9.47;;;8.20;99.90;;;;;;4425626;32;20119;-71
2021/09/06 05:55:20;;;;;;;16.33;9.40;;;8.30;99.90;;;;;;4428417;32;20342;-71
2021/09/06 05:57:46;;;;;;;18.57;9.27;;;8.40;99.90;;;;;;4423294;32;20151;-71
2021/09/06 06:00:14;;;;;;;14.53;8.43;;;8.50;99.90;;;;;;4423360;32;20185;-71
2021/09/06 06:02:41;;;;;;;14.97;8.40;;;8.60;99.90;;;;;;4424653;32;20227;-70
2021/09/06 06:05:08;;;;;;;12.50;7.90;;;8.70;99.90;;;;;;4425756;32;20381;-69
2021/09/06 06:07:39;;;;;;;13.27;8.10;;;8.80;99.90;;;;;;4427282;32;20210;-70
2021/09/06 06:10:06;;;;;;;13.33;7.77;;;8.90;99.90;;;;;;4427233;32;20147;-70
2021/09/06 06:12:33;;;;;;;12.47;7.07;;;9.10;99.90;;;;;;4427720;32;20127;-69
2021/09/06 06:15:00;;;;;;;11.80;6.90;;;9.20;99.90;;;;;;4427781;32;20138;-69
2021/09/06 06:17:27;;;;;;;11.40;6.27;;;9.30;99.90;;;;;;4427163;32;20132;-69
2021/09/06 06:19:54;;;;;;;10.23;5.97;;;9.40;99.90;;;;;;4426080;32;20135;-70
2021/09/06 06:22:20;;;;;;;11.97;5.53;;;9.50;99.90;;;;;;4427422;32;20211;-71
2021/09/06 06:24:47;;;;;;;10.60;5.83;;;9.50;99.90;;;;;;4425459;32;20456;-70
2021/09/06 06:27:14;;;;;;;9.43;5.50;;;9.70;99.90;;;;;;4425456;32;20147;-71
2021/09/06 06:29:41;;;;;;;8.33;4.97;;;9.70;99.90;;;;;;4427185;32;20173;-69
2021/09/06 06:32:08;;;;;;;8.27;4.90;;;9.80;99.90;;;;;;4423405;32;20194;-69
2021/09/06 06:34:35;;;;;;;7.47;4.20;;;9.90;99.90;;;;;;4425060;32;20254;-70
2021/09/06 06:37:02;;;;;;;7.00;4.30;;;10.00;99.90;;;;;;4427386;32;20142;-69
2021/09/06 06:39:29;;;;;;;8.97;4.20;;;10.00;99.90;;;;;;4424791;32;20147;-69
2021/09/06 06:41:55;;;;;;;7.60;4.10;;;10.10;99.90;;;;;;4425749;32;20146;-70
2021/09/06 06:44:22;;;;;;;6.87;3.90;;;10.20;99.90;;;;;;4427373;32;20170;-70
2021/09/06 06:46:49;;;;;;;6.67;3.93;;;10.40;99.90;;;;;;4425026;32;20163;-71
2021/09/06 06:49:16;;;;;;;7.00;3.93;;;10.50;99.90;;;;;;4426847;32;20166;-69
2021/09/06 06:51:43;;;;;;;6.30;3.80;;;10.60;99.90;;;;;;4425655;32;20240;-69
2021/09/06 06:54:10;;;;;;;8.90;4.00;;;10.70;99.90;;;;;;4425520;32;20543;-70
2021/09/06 06:56:37;;;;;;;7.00;3.60;;;10.80;99.90;;;;;;4426911;32;20135;-70
2021/09/06 06:59:04;;;;;;;7.40;3.97;;;10.90;99.90;;;;;;4426935;32;20420;-70
2021/09/06 07:01:30;;;;;;;6.60;3.93;;;11.00;99.90;;;;;;4427393;32;20139;-70
2021/09/06 07:03:57;;;;;;;6.97;3.83;;;11.10;99.90;;;;;;4427257;32;20140;-70
2021/09/06 07:06:26;;;;;;;7.53;4.07;;;11.20;99.90;;;;;;4426905;32;20130;-75
2021/09/06 07:08:53;;;;;;;6.93;4.07;;;11.40;99.90;;;;;;4425969;32;20228;-70
2021/09/06 07:11:19;;;;;;;7.70;4.50;;;11.50;99.90;;;;;;4426894;32;20139;-70
2021/09/06 07:13:46;;;;;;;7.83;3.90;;;11.60;99.90;;;;;;4425384;32;20437;-70
2021/09/06 07:16:13;;;;;;;6.40;3.63;;;11.70;99.90;;;;;;4424841;32;20160;-70
2021/09/06 07:18:40;;;;;;;7.67;3.77;;;11.80;99.90;;;;;;4426988;32;20177;-70
2021/09/06 07:21:07;;;;;;;8.10;4.03;;;12.00;99.90;;;;;;4426946;32;20127;-70
2021/09/06 07:23:33;;;;;;;7.43;3.20;;;12.10;99.90;;;;;;4426974;32;20180;-70
2021/09/06 07:26:00;;;;;;;5.27;3.00;;;12.20;99.90;;;;;;4427008;32;20149;-70
2021/09/06 07:28:27;;;;;;;3.77;2.43;;;12.40;99.90;;;;;;4425026;32;20167;-70
2021/09/06 07:30:54;;;;;;;5.17;2.83;;;12.40;99.90;;;;;;4424476;32;20502;-69
2021/09/06 07:33:21;;;;;;;3.73;2.30;;;12.50;99.90;;;;;;4426984;32;20146;-69
2021/09/06 07:35:47;;;;;;;4.47;1.93;;;12.60;99.90;;;;;;4426434;32;20464;-69
2021/09/06 07:38:14;;;;;;;4.70;1.93;;;12.70;99.90;;;;;;4426614;32;20131;-69
2021/09/06 07:40:41;;;;;;;4.73;1.90;;;12.80;99.90;;;;;;4424966;32;20123;-69
2021/09/06 07:43:08;;;;;;;2.33;1.60;;;12.80;99.90;;;;;;4424142;32;20165;-69
2021/09/06 07:45:35;;;;;;;2.10;1.43;;;13.00;99.90;;;;;;4424871;32;20131;-69
2021/09/06 07:48:02;;;;;;;3.33;1.40;;;13.00;99.90;;;;;;4424871;32;20192;-71
2021/09/06 07:50:29;;;;;;;3.53;1.30;;;13.20;99.90;;;;;;4425851;32;20123;-69
2021/09/06 07:52:56;;;;;;;2.57;1.50;;;13.30;99.90;;;;;;4424544;32;20400;-67
2021/09/06 07:55:23;;;;;;;1.97;1.30;;;13.40;99.90;;;;;;4424346;32;20526;-70
2021/09/06 07:57:50;;;;;;;2.37;1.33;;;13.50;99.90;;;;;;4424700;32;20210;-70
2021/09/06 08:00:17;;;;;;;1.97;1.30;;;13.60;99.90;;;;;;4425137;32;20128;-70
2021/09/06 08:02:50;;;;;;;3.30;1.40;;;13.60;99.90;;;;;;4426130;32;20169;-69
2021/09/06 08:05:25;;;;;;;3.13;1.30;;;13.70;99.90;;;;;;4424739;32;20157;-70
2021/09/06 08:07:53;;;;;;;3.17;1.80;;;13.90;99.90;;;;;;4424993;32;20170;-70
2021/09/06 08:10:20;;;;;;;3.97;1.43;;;14.00;99.90;;;;;;4424630;32;20177;-71
2021/09/06 08:12:49;;;;;;;2.23;1.40;;;14.10;99.90;;;;;;4423575;32;20154;-71
2021/09/06 08:15:17;;;;;;;2.30;1.30;;;14.20;99.90;;;;;;4424375;32;20139;-70
2021/09/06 08:17:43;;;;;;;4.33;1.40;;;14.40;99.90;;;;;;4424352;32;20400;-69
2021/09/06 08:20:14;;;;;;;2.13;1.20;;;14.60;99.90;;;;;;4425962;32;20220;-71
2021/09/06 08:22:41;;;;;;;3.33;1.40;;;14.80;99.90;;;;;;4424828;32;20169;-70
2021/09/06 08:25:09;;;;;;;2.40;1.40;;;14.90;99.90;;;;;;4424328;32;20463;-71
2021/09/06 08:27:37;;;;;;;1.93;0.83;;;15.30;99.90;;;;;;4424136;32;20180;-70
2021/09/06 08:30:06;;;;;;;1.80;1.10;;;16.00;99.90;;;;;;4423188;32;20151;-70
2021/09/06 08:32:33;;;;;;;1.50;1.13;;;16.70;99.90;;;;;;4425629;32;20379;-70
2021/09/06 08:35:01;;;;;;;2.27;0.90;;;17.40;99.90;;;;;;4424094;32;20131;-70
2021/09/06 08:37:27;;;;;;;2.00;1.20;;;18.00;99.90;;;;;;4424802;32;20177;-71
2021/09/06 08:39:54;;;;;;;2.40;1.00;;;18.60;99.90;;;;;;4425079;32;20127;-71
2021/09/06 08:42:21;;;;;;;2.03;1.10;;;19.10;98.10;;;;;;4426846;32;20176;-71
2021/09/06 08:44:48;;;;;;;2.00;1.00;;;19.40;94.80;;;;;;4426386;32;20135;-70
2021/09/06 08:47:15;;;;;;;3.30;1.10;;;19.70;94.00;;;;;;4424917;32;20404;-70
2021/09/06 08:49:45;;;;;;;0.93;0.63;;;20.00;93.20;;;;;;4425222;32;20227;-70
2021/09/06 08:52:13;;;;;;;1.53;0.80;;;20.00;85.30;;;;;;4424492;32;20138;-70
2021/09/06 08:54:41;;;;;;;2.67;1.10;;;20.30;83.90;;;;;;4425473;32;20139;-69
2021/09/06 08:57:08;;;;;;;2.40;1.03;;;20.60;83.00;;;;;;4423097;32;20159;-69
2021/09/06 08:59:39;;;;;;;2.20;1.10;;;21.00;82.80;;;;;;4424908;32;20373;-70
2021/09/06 09:02:06;;;;;;;2.63;0.90;;;21.30;79.90;;;;;;4423297;32;20169;-70
2021/09/06 09:04:38;;;;;;;1.73;0.97;;;21.70;77.50;;;;;;4423468;32;20153;-70
2021/09/06 09:07:05;;;;;;;2.50;0.90;;;22.00;75.20;;;;;;4423439;32;20446;-69
2021/09/06 09:09:37;;;;;;;1.80;0.90;;;22.10;72.10;;;;;;4423146;32;20162;-72
2021/09/06 09:12:10;;;;;;;2.67;0.80;;;22.40;70.50;;;;;;4424741;32;20139;-71
2021/09/06 09:14:40;;;;;;;1.33;0.60;;;22.80;68.40;;;;;;4422529;32;20166;-71
2021/09/06 09:17:09;;;;;;;2.10;0.90;;;23.20;64.20;;;;;;4424280;32;20506;-71
2021/09/06 09:19:38;;;;;;;1.10;0.70;;;23.20;62.10;;;;;;4423042;32;20208;-70
2021/09/06 09:22:08;;;;;;;1.77;0.90;;;23.30;63.50;;;;;;4424572;32;20143;-69
2021/09/06 09:24:38;;;;;;;1.53;1.07;;;23.70;63.50;;;;;;4423865;32;20195;-69
2021/09/06 09:27:08;;;;;;;2.10;0.98;;;24.00;61.10;;;;;;4424146;32;20523;-69
2021/09/06 09:29:35;;;;;;;1.50;0.90;;;24.30;59.50;;;;;;4423554;32;20153;-70
2021/09/06 09:32:05;;;;;;;2.22;1.00;;;24.40;59.20;;;;;;4422786;32;20199;-69
2021/09/06 09:34:40;;;;;;;1.85;1.00;;;24.70;57.10;;;;;;4421160;32;20138;-69
2021/09/06 09:37:08;;;;;;;1.75;1.08;;;24.70;58.10;;;;;;4424693;32;20142;-69
2021/09/06 09:39:36;;;;;;;1.35;1.05;;;25.00;57.20;;;;;;4423269;32;20162;-70
2021/09/06 09:42:11;;;;;;;1.58;0.75;;;24.90;55.00;;;;;;4423667;32;20154;-68
2021/09/06 09:44:45;;;;;;;2.20;1.17;;;25.00;54.70;;;;;;4425005;32;20441;-69
2021/09/06 09:47:13;;;;;;;2.80;1.20;;;25.00;54.60;;;;;;4422935;32;20199;-70
2021/09/06 09:49:41;;;;;;;2.97;1.30;;;25.10;53.40;;;;;;4424388;32;20206;-71
2021/09/06 09:52:09;;;;;;;2.08;1.10;;;25.00;53.20;;;;;;4423125;32;20217;-69
2021/09/06 09:54:36;;;;;;;3.37;1.77;;;25.10;53.40;;;;;;4424535;32;20142;-70
2021/09/06 09:57:03;;;;;;;2.10;1.15;;;25.20;52.60;;;;;;4422944;32;20183;-69
2021/09/06 09:59:30;;;;;;;1.80;1.20;;;25.40;53.10;;;;;;4422863;32;20197;-69
2021/09/06 10:02:00;;;;;;;1.73;1.30;;;25.60;52.10;;;;;;4423046;32;20493;-68
2021/09/06 10:04:34;;;;;;;2.28;1.30;;;25.50;50.50;;;;;;4423675;32;20135;-69
2021/09/06 10:07:03;;;;;;;1.95;1.30;;;25.50;53.10;;;;;;4422796;32;20167;-68
2021/09/06 10:09:42;;;;;;;1.40;1.08;;;25.90;51.70;;;;;;4424302;32;20218;-67
2021/09/06 10:12:16;;;;;;;2.80;1.20;;;26.30;53.40;;;;;;4422216;32;20135;-68
2021/09/06 10:14:52;;;;;;;2.75;1.15;;;26.60;51.30;;;;;;4424698;32;20158;-68
2021/09/06 10:17:47;;;;;;;1.80;1.10;;;27.00;51.60;;;;;;4424198;32;20227;-68
2021/09/06 10:20:13;;;;;;;2.33;1.20;;;27.20;49.60;;;;;;4418415;32;20456;-66
2021/09/06 10:22:42;;;;;;;2.17;1.12;;;27.30;49.20;;;;;;4423323;32;20169;-68
2021/09/06 10:25:11;;;;;;;1.87;1.30;;;27.30;49.00;;;;;;4423807;32;20153;-68
2021/09/06 10:27:52;;;;;;;1.52;1.00;;;27.50;49.70;;;;;;4422883;32;20582;-68
2021/09/06 10:30:20;;;;;;;1.65;1.10;;;27.70;48.80;;;;;;4423985;32;20127;-67
2021/09/06 10:32:50;;;;;;;1.62;1.10;;;28.30;49.50;;;;;;4424043;32;20170;-67
2021/09/06 10:35:24;;;;;;;1.62;0.93;;;28.80;47.90;;;;;;4423973;32;20165;-67
2021/09/06 10:38:03;;;;;;;3.37;1.10;;;28.80;44.90;;;;;;4423589;32;20163;-68
2021/09/06 10:40:33;;;;;;;1.77;1.12;;;29.00;46.40;;;;;;4416714;32;20175;-67
2021/09/06 10:43:20;;;;;;;1.95;1.08;;;29.10;44.80;;;;;;4424632;32;20127;-67
2021/09/06 10:45:50;;;;;;;1.50;1.00;;;29.10;45.00;;;;;;4423899;32;20135;-67
2021/09/06 10:48:24;;;;;;;3.85;1.10;;;29.20;43.40;;;;;;4422538;32;20174;-67
2021/09/06 10:50:52;;;;;;;2.83;1.00;;;28.80;42.90;;;;;;4421929;32;20251;-66
2021/09/06 10:53:23;;;;;;;1.52;1.10;;;28.80;44.70;;;;;;4424742;32;20162;-67
2021/09/06 10:55:52;;;;;;;2.30;1.30;;;28.90;44.30;;;;;;4426296;32;20138;-69
2021/09/06 10:58:24;;;;;;;1.92;1.00;;;29.20;44.40;;;;;;4427207;32;20131;-67
2021/09/06 11:00:54;;;;;;;2.70;1.25;;;29.50;44.30;;;;;;4425222;32;20127;-68
2021/09/06 11:03:30;;;;;;;1.30;1.02;;;29.50;43.20;;;;;;4425135;32;20127;-67
2021/09/06 11:05:58;;;;;;;1.37;1.10;;;29.50;43.30;;;;;;4426825;32;20460;-67
2021/09/06 11:08:34;;;;;;;2.95;1.23;;;29.30;42.70;;;;;;4425052;32;20147;-67
2021/09/06 11:11:03;;;;;;;2.55;1.20;;;29.30;43.20;;;;;;4425495;32;20142;-67
2021/09/06 11:13:37;;;;;;;2.03;0.93;;;29.70;43.30;;;;;;4426759;32;20441;-67
2021/09/06 11:16:05;;;;;;;1.70;1.30;;;30.10;43.20;;;;;;4424363;32;20561;-68
2021/09/06 11:18:54;;;;;;;2.90;1.05;;;30.40;42.80;;;;;;4425722;32;20210;-68
2021/09/06 11:21:22;;;;;;;2.90;1.05;;;30.40;41.90;;;;;;4425909;32;20127;-68
2021/09/06 11:23:49;;;;;;;2.00;1.00;;;30.90;42.60;;;;;;4425106;32;20426;-68
2021/09/06 11:26:25;;;;;;;1.60;0.90;;;31.20;41.20;;;;;;4425344;32;20199;-70
2021/09/06 11:28:52;;;;;;;1.15;0.70;;;31.30;40.80;;;;;;4423814;32;20210;-68
2021/09/06 11:31:20;;;;;;;1.55;0.88;;;31.80;40.50;;;;;;4426290;32;20208;-69
2021/09/06 11:34:05;;;;;;;1.33;0.80;;;32.20;38.80;;;;;;4426415;32;20178;-69
2021/09/06 11:36:33;;;;;;;1.20;0.80;;;32.60;37.60;;;;;;4426343;32;20402;-68
2021/09/06 11:39:00;;;;;;;1.70;1.00;;;33.30;38.70;;;;;;4425293;32;20437;-69
2021/09/06 11:41:27;;;;;;;1.15;0.85;;;33.80;38.00;;;;;;4425497;32;20197;-69
2021/09/06 11:43:55;;;;;;;1.05;0.85;;;34.10;35.60;;;;;;4426793;32;20204;-68
2021/09/06 11:46:23;;;;;;;1.65;0.80;;;34.30;35.00;;;;;;4425093;32;20135;-69
2021/09/06 11:48:51;;;;;;;4.00;1.10;;;34.50;34.10;;;;;;4424245;32;20484;-69
2021/09/06 11:51:19;;;;;;;0.90;0.80;;;34.40;33.50;;;;;;4424888;32;20138;-68
2021/09/06 11:54:00;;;;;;;1.08;0.80;;;34.30;33.30;;;;;;4426055;32;20132;-68
2021/09/06 11:56:28;;;;;;;1.12;0.70;;;34.20;33.40;;;;;;4425270;32;20230;-69
2021/09/06 11:58:58;;;;;;;1.58;0.80;;;34.50;34.30;;;;;;4426195;32;20212;-67
2021/09/06 12:01:26;;;;;;;2.08;0.80;;;35.00;34.10;;;;;;4424338;32;20127;-69
2021/09/06 12:04:05;;;;;;;1.50;0.88;;;35.10;34.80;;;;;;4424754;32;20139;-69
2021/09/06 12:06:32;;;;;;;2.10;1.10;;;35.20;33.50;;;;;;4424669;32;20173;-68
2021/09/06 12:09:01;;;;;;;1.02;0.80;;;35.30;33.20;;;;;;4424358;32;20201;-69
2021/09/06 12:11:52;;;;;;;1.10;0.70;;;35.40;32.80;;;;;;4424931;32;20155;-67
2021/09/06 12:14:19;;;;;;;1.10;0.80;;;35.30;32.10;;;;;;4424039;32;20192;-67
2021/09/06 12:16:58;;;;;;;1.00;0.77;;;35.20;32.40;;;;;;4424542;32;20234;-69
2021/09/06 12:19:25;;;;;;;1.52;0.90;;;35.30;32.90;;;;;;4425464;32;20489;-68
2021/09/06 12:21:53;;;;;;;0.85;0.80;;;35.30;32.90;;;;;;4425276;32;20165;-69
2021/09/06 12:24:22;;;;;;;1.10;0.90;;;35.30;33.00;;;;;;4425943;32;20216;-69
2021/09/06 12:26:50;;;;;;;1.65;1.00;;;35.40;33.10;;;;;;4426123;32;20149;-69
2021/09/06 12:29:31;;;;;;;1.55;0.80;;;35.20;33.30;;;;;;4424244;32;20135;-70
2021/09/06 12:32:01;;;;;;;1.12;0.80;;;34.50;32.80;;;;;;4424824;32;20146;-70
2021/09/06 12:34:29;;;;;;;3.80;0.93;;;34.30;33.70;;;;;;4424010;32;20588;-69
2021/09/06 12:37:02;;;;;;;2.35;0.80;;;34.10;33.50;;;;;;4422633;32;20507;-67
2021/09/06 12:39:31;;;;;;;1.45;0.73;;;34.10;33.90;;;;;;4417828;32;20242;-68
2021/09/06 12:41:58;;;;;;;2.12;0.90;;;34.00;34.00;;;;;;4423555;32;20169;-68
2021/09/06 12:44:24;;;;;;;1.65;0.98;;;34.10;33.60;;;;;;4423733;32;20383;-67
2021/09/06 12:46:52;;;;;;;2.62;1.10;;;33.80;32.40;;;;;;4423678;32;20172;-67
2021/09/06 12:49:19;;;;;;;1.40;1.00;;;33.60;34.80;;;;;;4424645;32;20212;-68